Time;durP1;ratioP1;P1;durP2;ratioP2;P2;SDS_P1;SDS_P2;PMS_P1;PMS_P2;Temp;Humidity;BMP_temperature;BMP_pressure;BME280_temperature;BME280_humidity;BME280_pressure;Samples;Min_cycle;Max_cycle;Signal;HPM_P1;HPM_P2
2022/05/05 00:01:11;;;;;;;8.82;5.50;;;;;;;13.76;74.32;101053.16;5036698;28;20049;-61
2022/05/05 00:03:39;;;;;;;11.73;5.70;;;;;;;13.64;74.80;101048.84;5047106;28;20151;-61
2022/05/05 00:06:08;;;;;;;8.88;5.47;;;;;;;13.54;74.69;101046.22;5052010;28;20045;-61
2022/05/05 00:08:36;;;;;;;6.72;5.43;;;;;;;13.49;74.31;101046.25;5050671;28;20057;-61
2022/05/05 00:16:37;;;;;;;7.50;5.50;;;;;;;13.49;74.56;101040.75;5047040;28;20057;-61
2022/05/05 00:19:05;;;;;;;8.55;5.30;;;;;;;13.47;74.59;101049.28;5051114;28;20064;-61
2022/05/05 00:21:33;;;;;;;6.10;5.25;;;;;;;13.47;74.77;101051.22;5050924;28;20052;-61
2022/05/05 00:24:01;;;;;;;7.50;5.18;;;;;;;13.52;74.79;101051.16;5051123;28;20048;-62
2022/05/05 00:26:29;;;;;;;8.90;5.68;;;;;;;13.55;75.44;101067.91;5048718;28;20112;-61
2022/05/05 00:28:57;;;;;;;9.02;5.20;;;;;;;13.66;75.10;101068.66;5050807;28;20045;-61
2022/05/05 00:31:25;;;;;;;8.43;5.63;;;;;;;13.79;74.00;101066.34;5051225;28;20496;-61
2022/05/05 00:33:53;;;;;;;9.30;5.40;;;;;;;13.77;75.18;101063.03;5051306;28;20053;-61
2022/05/05 00:36:21;;;;;;;12.90;7.10;;;;;;;13.73;75.36;101057.28;5050890;28;20578;-61
2022/05/05 00:38:49;;;;;;;11.20;6.05;;;;;;;13.69;75.41;101061.75;5051574;28;20057;-61
2022/05/05 00:41:17;;;;;;;12.05;6.57;;;;;;;13.63;75.35;101052.72;5050634;28;20057;-61
2022/05/05 00:43:45;;;;;;;12.70;5.72;;;;;;;13.66;74.56;101063.16;5051323;28;20048;-61
2022/05/05 00:46:16;;;;;;;8.57;5.95;;;;;;;13.65;74.83;101061.50;5052807;28;20040;-61
2022/05/05 00:48:44;;;;;;;12.30;7.03;;;;;;;13.68;74.92;101057.34;5044788;28;20392;-61
2022/05/05 00:51:12;;;;;;;13.10;6.55;;;;;;;13.70;75.83;101053.19;5050673;28;20056;-61
2022/05/05 00:53:40;;;;;;;8.95;6.35;;;;;;;13.74;74.92;101058.13;5054976;28;20056;-61
2022/05/05 00:56:14;;;;;;;11.10;6.53;;;;;;;13.73;74.45;101051.78;5039656;28;20500;-61
2022/05/05 00:58:45;;;;;;;10.43;6.95;;;;;;;13.63;75.21;101052.72;5040767;28;20057;-61
2022/05/05 01:01:20;;;;;;;12.25;7.15;;;;;;;13.67;75.28;101053.78;5035092;28;20049;-61
2022/05/05 01:03:49;;;;;;;9.35;6.90;;;;;;;13.55;76.03;101048.66;5035422;28;20057;-61
2022/05/05 01:06:17;;;;;;;12.13;6.43;;;;;;;13.53;76.20;101061.06;5035211;28;20096;-61
2022/05/05 01:08:46;;;;;;;10.25;6.60;;;;;;;13.48;76.40;101056.41;5042354;28;20053;-61
2022/05/05 01:11:14;;;;;;;9.85;6.57;;;;;;;13.40;78.17;101057.03;5041226;28;20382;-62
2022/05/05 01:13:43;;;;;;;15.93;7.82;;;;;;;13.32;78.06;101063.94;5048786;28;20500;-61
2022/05/05 01:16:11;;;;;;;11.07;6.88;;;;;;;13.24;79.27;101061.81;5035307;28;20407;-61
2022/05/05 01:18:39;;;;;;;9.63;6.82;;;;;;;13.22;78.74;101072.25;5034866;28;20511;-61
2022/05/05 01:21:10;;;;;;;11.35;7.07;;;;;;;13.25;79.49;101078.00;5037817;28;20045;-61
2022/05/05 01:23:39;;;;;;;12.40;8.25;;;;;;;13.38;79.08;101065.56;5034666;28;20057;-61
2022/05/05 01:28:54;;;;;;;13.27;8.07;;;;;;;13.67;76.44;101064.78;5034273;28;20060;-61
2022/05/05 01:31:22;;;;;;;14.43;8.68;;;;;;;13.84;75.95;101063.53;5034787;28;20068;-61
2022/05/05 01:33:51;;;;;;;17.95;7.95;;;;;;;13.68;76.78;101065.59;5034414;28;20045;-61
2022/05/05 01:36:19;;;;;;;11.50;7.43;;;;;;;13.68;77.79;101063.69;5034466;28;20070;-61
2022/05/05 01:38:47;;;;;;;10.23;7.55;;;;;;;13.61;78.04;101065.13;5040001;28;20056;-61
2022/05/05 01:41:15;;;;;;;16.23;8.25;;;;;;;13.47;78.73;101065.78;5045149;28;20116;-61
2022/05/05 01:43:45;;;;;;;13.90;8.27;;;;;;;13.44;79.30;101069.91;5034991;28;20049;-61
2022/05/05 01:46:14;;;;;;;9.73;7.40;;;;;;;13.40;79.84;101071.56;5037957;28;20499;-61
2022/05/05 01:48:42;;;;;;;13.38;7.90;;;;;;;13.37;80.20;101072.16;5044026;28;20515;-61
2022/05/05 01:51:10;;;;;;;11.60;7.20;;;;;;;13.47;79.02;101081.44;5034613;28;20053;-61
2022/05/05 01:53:38;;;;;;;10.65;6.68;;;;;;;13.30;79.55;101071.66;5036673;28;20061;-61
2022/05/05 01:56:09;;;;;;;12.85;7.13;;;;;;;13.29;78.98;101075.50;5045447;28;20072;-62
2022/05/05 01:58:38;;;;;;;12.45;6.93;;;;;;;13.25;79.39;101068.97;5045777;28;20055;-62
2022/05/05 02:01:06;;;;;;;12.43;6.82;;;;;;;13.21;79.33;101074.22;5036332;28;20052;-61
2022/05/05 02:03:35;;;;;;;13.23;7.88;;;;;;;13.13;79.72;101072.88;5035344;28;20049;-61
2022/05/05 02:06:03;;;;;;;12.98;7.53;;;;;;;13.03;80.24;101072.94;5043220;28;20049;-61
2022/05/05 02:08:31;;;;;;;12.02;7.38;;;;;;;13.00;80.78;101068.03;5033691;28;20049;-61
2022/05/05 02:10:59;;;;;;;10.75;7.15;;;;;;;12.93;81.16;101062.00;5033583;28;20056;-62
2022/05/05 02:13:27;;;;;;;10.98;7.40;;;;;;;12.93;81.20;101062.00;5033284;28;20048;-61
2022/05/05 02:15:55;;;;;;;12.77;7.95;;;;;;;12.86;80.83;101063.13;5033757;28;20060;-62
2022/05/05 02:18:23;;;;;;;10.93;7.05;;;;;;;12.76;81.58;101049.50;5034246;28;20046;-61
2022/05/05 02:20:51;;;;;;;10.82;6.95;;;;;;;12.70;81.58;101058.88;5033897;28;20057;-61
2022/05/05 02:23:19;;;;;;;13.13;7.50;;;;;;;12.71;81.77;101055.00;5033796;28;20049;-61
2022/05/05 02:25:47;;;;;;;12.25;6.95;;;;;;;12.76;81.56;101057.72;5034256;28;20395;-61
2022/05/05 02:28:14;;;;;;;12.50;7.15;;;;;;;12.72;81.54;101054.69;5034136;28;20507;-61
2022/05/05 02:30:43;;;;;;;9.77;6.93;;;;;;;12.71;81.40;101044.03;5033428;28;20539;-61
2022/05/05 02:33:11;;;;;;;10.70;7.47;;;;;;;12.63;81.63;101045.44;5033184;28;20041;-61
2022/05/05 02:35:39;;;;;;;10.18;7.43;;;;;;;12.71;81.39;101049.50;5036401;28;20067;-61
2022/05/05 02:40:53;;;;;;;9.80;6.38;;;;;;;12.70;81.38;101043.19;5033693;28;20065;-62
2022/05/05 02:43:21;;;;;;;11.75;6.78;;;;;;;12.70;82.02;101048.69;5033523;28;20045;-62
2022/05/05 02:45:49;;;;;;;10.55;7.30;;;;;;;12.92;80.52;101046.63;5041297;28;20049;-61
2022/05/05 02:48:17;;;;;;;9.70;6.15;;;;;;;13.04;79.42;101041.59;5041045;28;20037;-62
2022/05/05 02:50:45;;;;;;;12.10;7.68;;;;;;;12.96;80.18;101039.47;5033444;28;20514;-61
2022/05/05 02:56:00;;;;;;;10.90;6.88;;;;;;;12.93;80.00;101032.63;5032870;28;20053;-61
2022/05/05 02:58:29;;;;;;;12.05;6.63;;;;;;;12.90;80.12;101033.19;5032728;28;20042;-61
2022/05/05 03:00:56;;;;;;;13.15;6.57;;;;;;;12.84;80.60;101026.06;5033213;28;20053;-61
2022/05/05 03:03:24;;;;;;;13.98;7.22;;;;;;;12.82;80.30;101023.63;5033790;28;20049;-61
2022/05/05 03:05:52;;;;;;;9.00;5.82;;;;;;;12.80;80.33;101017.59;5041391;28;20056;-61
2022/05/05 03:08:20;;;;;;;11.55;6.63;;;;;;;12.77;80.01;101007.19;5032426;28;20057;-61
2022/05/05 03:10:48;;;;;;;9.65;6.07;;;;;;;12.92;79.19;101020.00;5033444;28;20045;-61
2022/05/05 03:13:16;;;;;;;9.45;6.15;;;;;;;13.11;77.89;101008.31;5032799;28;20492;-61
2022/05/05 03:15:44;;;;;;;8.95;5.68;;;;;;;13.13;77.89;101006.94;5029901;28;20053;-61
2022/05/05 03:18:12;;;;;;;9.43;5.97;;;;;;;13.20;77.66;101011.28;5032415;28;20045;-61
2022/05/05 03:20:40;;;;;;;10.65;6.70;;;;;;;13.23;77.35;101016.19;5032886;28;20056;-61
2022/05/05 03:23:08;;;;;;;10.05;6.40;;;;;;;13.15;78.16;101015.69;5032467;28;20584;-61
2022/05/05 03:25:37;;;;;;;9.80;6.63;;;;;;;12.99;78.73;101016.91;5032112;28;20049;-61
2022/05/05 03:28:05;;;;;;;9.27;6.55;;;;;;;12.98;78.53;101018.03;5032224;28;20049;-61
2022/05/05 03:30:34;;;;;;;8.80;5.78;;;;;;;12.85;79.28;101012.06;5032379;28;20046;-61
2022/05/05 03:33:22;;;;;;;9.48;6.10;;;;;;;12.87;80.29;101018.09;5032613;28;20060;-62
2022/05/05 03:35:53;;;;;;;10.88;6.82;;;;;;;12.83;80.59;101013.47;5027853;28;20049;-61
2022/05/05 03:38:21;;;;;;;14.25;6.85;;;;;;;12.82;80.14;101023.63;5032188;28;20400;-62
2022/05/05 03:40:50;;;;;;;10.38;6.38;;;;;;;12.80;81.05;101031.31;5032594;28;20041;-61
2022/05/05 03:43:18;;;;;;;10.85;6.10;;;;;;;12.75;82.28;101023.94;5032760;28;20045;-61
2022/05/05 03:45:46;;;;;;;9.50;6.45;;;;;;;12.62;81.90;101028.13;5032315;28;20060;-61
2022/05/05 03:48:14;;;;;;;12.18;6.70;;;;;;;12.61;81.71;101029.22;5032383;28;20049;-61
2022/05/05 03:50:45;;;;;;;12.13;7.30;;;;;;;12.60;82.47;101044.06;5031919;28;20064;-61
2022/05/05 03:53:13;;;;;;;9.07;6.28;;;;;;;12.55;81.86;101038.59;5032078;28;20492;-61
2022/05/05 03:55:41;;;;;;;11.45;6.45;;;;;;;12.55;81.68;101048.75;5032220;28;20053;-61
2022/05/05 03:58:11;;;;;;;11.10;5.88;;;;;;;12.54;80.73;101056.19;5049960;28;20064;-61
2022/05/05 04:00:43;;;;;;;11.70;6.05;;;;;;;12.59;81.29;101049.84;5052112;28;20506;-61
2022/05/05 04:06:05;;;;;;;10.32;5.90;;;;;;;12.98;78.91;101051.81;5036036;28;20061;-61
2022/05/05 04:08:34;;;;;;;11.57;7.03;;;;;;;12.94;79.65;101066.41;5034399;28;20061;-61
2022/05/05 04:11:02;;;;;;;10.00;6.70;;;;;;;12.82;79.01;101064.00;5031630;28;20049;-61
2022/05/05 04:13:30;;;;;;;7.75;5.85;;;;;;;12.72;79.68;101062.13;5031708;28;20053;-61
2022/05/05 04:15:58;;;;;;;12.13;6.57;;;;;;;12.76;79.15;101065.97;5031383;28;20056;-61
2022/05/05 04:18:26;;;;;;;8.63;6.28;;;;;;;12.82;78.63;101072.25;5040674;28;20056;-61
2022/05/05 04:20:54;;;;;;;8.68;6.05;;;;;;;13.04;78.51;101075.41;5050729;28;20399;-62
2022/05/05 04:23:23;;;;;;;11.27;5.95;;;;;;;13.35;77.06;101074.34;5034751;28;20049;-65
2022/05/05 04:26:11;;;;;;;11.48;7.22;;;;;;;13.69;75.86;101079.06;5031446;28;20049;-65
2022/05/05 04:28:42;;;;;;;8.73;5.95;;;;;;;13.96;74.42;101085.16;5050635;28;20045;-65
2022/05/05 04:31:13;;;;;;;10.88;6.55;;;;;;;14.11;73.35;101086.91;5050805;28;20057;-65
2022/05/05 04:33:42;;;;;;;8.90;6.30;;;;;;;14.13;73.21;101084.69;5050886;28;20075;-65
2022/05/05 04:36:12;;;;;;;9.75;5.90;;;;;;;14.26;73.34;101096.13;5051624;28;20057;-65
2022/05/05 04:38:40;;;;;;;8.00;5.63;;;;;;;14.37;72.14;101098.47;5050955;28;20049;-65
2022/05/05 04:41:08;;;;;;;9.20;5.97;;;;;;;14.26;72.95;101096.13;5050412;28;20053;-65
2022/05/05 04:43:36;;;;;;;10.13;6.65;;;;;;;14.15;73.17;101104.50;5040703;28;20059;-65
2022/05/05 04:46:04;;;;;;;10.13;7.10;;;;;;;14.22;73.38;101112.38;5051110;28;20045;-65
2022/05/05 04:48:33;;;;;;;10.98;7.10;;;;;;;14.26;73.39;101102.44;5042638;28;20048;-65
2022/05/05 04:51:00;;;;;;;10.50;6.68;;;;;;;14.17;73.81;101115.22;5031679;28;20063;-65
2022/05/05 04:53:29;;;;;;;10.23;7.45;;;;;;;14.21;73.89;101113.50;5031810;28;20129;-65
2022/05/05 04:55:57;;;;;;;15.27;7.97;;;;;;;14.23;74.48;101112.09;5031427;28;20404;-65
2022/05/05 04:58:25;;;;;;;12.50;7.30;;;;;;;14.31;74.13;101126.34;5048310;28;20056;-65
2022/05/05 05:00:53;;;;;;;12.55;7.57;;;;;;;13.93;76.08;101119.56;5051132;28;20064;-65
2022/05/05 05:03:36;;;;;;;14.32;8.70;;;;;;;14.04;76.20;101123.06;5050248;28;20049;-65
2022/05/05 05:06:07;;;;;;;13.57;8.02;;;;;;;14.06;76.19;101114.47;5050701;28;20052;-65
2022/05/05 05:08:35;;;;;;;12.82;8.43;;;;;;;14.10;76.12;101124.66;5049953;28;20053;-66
2022/05/05 05:11:03;;;;;;;11.10;8.00;;;;;;;14.14;75.97;101127.63;5050891;28;20037;-64
2022/05/05 05:13:32;;;;;;;15.13;8.50;;;;;;;14.02;76.38;101113.44;5050937;28;20041;-64
2022/05/05 05:16:02;;;;;;;17.20;9.02;;;;;;;13.93;77.19;101111.31;5051045;28;20049;-64
2022/05/05 05:18:39;;;;;;;17.73;9.20;;;;;;;14.06;76.58;101107.06;5051332;28;20049;-63
2022/05/05 05:21:07;;;;;;;11.40;8.23;;;;;;;14.05;76.91;101113.69;5039023;28;20060;-65
2022/05/05 05:23:35;;;;;;;14.57;9.13;;;;;;;14.22;75.62;101104.13;5048000;28;20056;-65
2022/05/05 05:26:03;;;;;;;13.75;8.75;;;;;;;14.27;75.34;101106.03;5049352;28;20064;-65
2022/05/05 05:28:31;;;;;;;16.52;7.88;;;;;;;14.15;75.34;101112.75;5050849;28;20059;-65
2022/05/05 05:30:59;;;;;;;14.85;8.38;;;;;;;14.15;75.73;101118.25;5050355;28;20041;-65
2022/05/05 05:33:27;;;;;;;14.48;8.35;;;;;;;14.33;75.03;101118.63;5054195;28;20049;-65
2022/05/05 05:35:55;;;;;;;14.75;9.13;;;;;;;14.34;76.25;101136.78;5054425;28;20044;-65
2022/05/05 05:38:23;;;;;;;15.48;8.85;;;;;;;14.36;76.45;101134.53;5053837;28;20055;-65
2022/05/05 05:40:51;;;;;;;13.20;7.75;;;;;;;14.60;75.13;101133.72;5053861;28;20044;-65
2022/05/05 05:43:19;;;;;;;15.13;9.50;;;;;;;14.61;75.06;101135.34;5049079;28;20052;-65
2022/05/05 05:45:51;;;;;;;10.95;7.10;;;;;;;14.85;73.34;101134.53;5052859;28;20431;-65
2022/05/05 05:48:23;;;;;;;12.05;7.78;;;;;;;15.05;72.52;101137.03;5053679;28;20049;-65
2022/05/05 05:50:52;;;;;;;14.35;7.82;;;;;;;15.28;71.53;101137.28;5050545;28;20060;-65
2022/05/05 05:53:21;;;;;;;11.00;7.68;;;;;;;15.47;70.86;101147.47;5044305;28;20055;-64
2022/05/05 05:55:49;;;;;;;15.75;8.90;;;;;;;15.35;72.05;101158.94;5044158;28;20056;-64
2022/05/05 05:58:18;;;;;;;13.23;7.88;;;;;;;15.34;72.87;101167.53;5049089;28;20487;-65
2022/05/05 06:00:47;;;;;;;15.02;8.13;;;;;;;15.58;71.60;101157.25;5050416;28;20796;-66
2022/05/05 06:06:03;;;;;;;14.13;9.25;;;;;;;15.91;71.52;101152.84;5048714;28;20045;-63
2022/05/05 06:08:32;;;;;;;14.25;8.57;;;;;;;16.11;70.18;101151.69;5035923;28;20496;-63
2022/05/05 06:11:00;;;;;;;11.57;8.55;;;;;;;16.31;69.47;101150.50;5048570;28;20052;-62
2022/05/05 06:13:28;;;;;;;15.43;9.13;;;;;;;16.21;68.79;101153.44;5051781;28;20403;-62
2022/05/05 06:15:56;;;;;;;12.63;9.00;;;;;;;16.48;67.93;101162.91;5053014;28;20399;-62
2022/05/05 06:18:24;;;;;;;13.02;9.35;;;;;;;16.55;68.38;101170.78;5047556;28;20064;-62
2022/05/05 06:20:53;;;;;;;14.70;9.20;;;;;;;16.50;68.76;101157.88;5051160;28;20049;-63
2022/05/05 06:23:21;;;;;;;17.38;9.70;;;;;;;16.50;67.87;101171.69;5053374;28;20049;-63
2022/05/05 06:25:49;;;;;;;15.93;9.70;;;;;;;16.55;67.79;101168.84;5053061;28;20395;-63
2022/05/05 06:28:17;;;;;;;18.15;9.15;;;;;;;16.44;68.70;101175.69;5051201;28;20045;-62
2022/05/05 06:30:45;;;;;;;14.90;9.82;;;;;;;16.57;67.80;101179.59;5052144;28;20605;-63
2022/05/05 06:33:13;;;;;;;13.90;9.85;;;;;;;16.49;69.36;101184.72;5022174;28;20052;-63
2022/05/05 06:35:41;;;;;;;17.55;9.68;;;;;;;16.47;68.90;101181.41;5049420;28;20407;-63
2022/05/05 06:38:09;;;;;;;14.88;10.10;;;;;;;16.44;68.74;101179.28;5048123;28;20055;-63
2022/05/05 06:40:37;;;;;;;14.80;8.95;;;;;;;16.56;69.41;101184.28;5049818;28;20040;-63
2022/05/05 06:43:05;;;;;;;13.05;9.05;;;;;;;16.69;68.60;101179.91;5047798;28;20052;-63
2022/05/05 06:45:33;;;;;;;14.52;9.10;;;;;;;16.68;66.70;101182.97;5049037;28;20045;-63
2022/05/05 06:48:01;;;;;;;14.82;9.43;;;;;;;16.75;67.11;101184.19;5047318;28;20487;-63
2022/05/05 06:50:29;;;;;;;12.60;8.57;;;;;;;16.88;68.30;101190.84;5052089;28;20041;-62
2022/05/05 06:53:00;;;;;;;12.35;8.80;;;;;;;16.79;67.18;101190.75;5048203;28;20511;-64
2022/05/05 06:55:28;;;;;;;11.73;8.65;;;;;;;16.77;67.60;101201.28;5047314;28;20045;-63
2022/05/05 06:57:56;;;;;;;12.55;7.95;;;;;;;16.90;67.59;101198.81;5047726;28;20072;-63
2022/05/05 07:01:51;;;;;;;12.80;8.73;;;;;;;17.00;67.47;101204.13;5051373;28;20517;-64
2022/05/05 07:03:12;;;;;;;12.27;8.73;;;;;;;17.01;67.37;101202.22;5048127;28;20057;-64
2022/05/05 07:05:40;;;;;;;13.20;8.43;;;;;;;17.04;68.01;101188.63;5051500;28;20068;-64
2022/05/05 07:08:08;;;;;;;11.52;8.40;;;;;;;17.11;67.63;101195.66;5052272;28;20055;-63
2022/05/05 07:10:55;;;;;;;13.07;8.40;;;;;;;17.13;67.44;101185.94;5051127;28;20048;-64
2022/05/05 07:13:24;;;;;;;11.30;8.23;;;;;;;17.19;67.16;101178.34;5048678;28;20048;-64
2022/05/05 07:15:53;;;;;;;16.15;9.25;;;;;;;17.32;66.94;101182.22;5051778;28;20500;-63
2022/05/05 07:18:21;;;;;;;13.15;9.23;;;;;;;17.43;66.05;101177.25;5052579;28;20048;-64
2022/05/05 07:20:50;;;;;;;11.50;8.00;;;;;;;17.49;66.04;101169.66;5052003;28;20052;-63
2022/05/05 07:23:18;;;;;;;12.77;8.45;;;;;;;17.59;65.96;101169.41;5047526;28;20056;-64
2022/05/05 07:25:46;;;;;;;11.25;7.90;;;;;;;17.61;65.69;101161.63;5052190;28;20484;-64
2022/05/05 07:28:15;;;;;;;13.73;8.68;;;;;;;17.74;65.58;101176.50;5051948;28;20040;-64
2022/05/05 07:30:44;;;;;;;11.48;8.40;;;;;;;17.80;66.24;101166.94;5051944;28;20052;-64
2022/05/05 07:33:12;;;;;;;14.23;8.27;;;;;;;17.90;65.93;101157.59;5051972;28;20052;-64
2022/05/05 07:35:40;;;;;;;13.13;8.48;;;;;;;17.93;64.47;101164.44;5052227;28;20045;-64
2022/05/05 07:38:24;;;;;;;13.40;7.45;;;;;;;17.83;65.20;101160.78;5051283;28;20411;-66
2022/05/05 07:41:00;;;;;;;8.80;6.43;;;;;;;17.89;64.76;101153.16;5039249;28;20057;-65
2022/05/05 07:43:31;;;;;;;11.07;7.53;;;;;;;17.99;65.74;101171.50;5051990;28;20400;-66
2022/05/05 07:46:03;;;;;;;11.77;7.80;;;;;;;18.06;64.87;101168.28;5040501;28;20045;-67
2022/05/05 07:48:38;;;;;;;11.45;7.35;;;;;;;17.97;65.20;101166.25;5043011;28;20412;-63
2022/05/05 07:51:09;;;;;;;16.25;9.00;;;;;;;18.10;64.67;101172.06;5032428;28;20060;-66
2022/05/05 07:56:47;;;;;;;11.23;7.47;;;;;;;18.53;63.21;101174.22;5031352;28;20049;-63
2022/05/05 07:59:16;;;;;;;13.15;7.90;;;;;;;18.45;62.41;101185.28;5013952;28;20068;-63
2022/05/05 08:01:43;;;;;;;11.88;8.10;;;;;;;18.78;61.78;101182.16;5031474;28;20058;-63
2022/05/05 08:04:11;;;;;;;12.20;7.88;;;;;;;18.89;62.26;101179.88;5031721;28;20054;-62
2022/05/05 08:06:40;;;;;;;9.13;7.13;;;;;;;18.96;60.59;101185.78;5031299;28;20041;-63
2022/05/05 08:09:08;;;;;;;11.02;7.65;;;;;;;19.00;59.74;101191.50;5014821;28;20048;-63
2022/05/05 08:11:37;;;;;;;12.95;6.88;;;;;;;18.94;58.99;101186.13;5031365;28;20056;-63
2022/05/05 08:14:08;;;;;;;10.68;7.40;;;;;;;19.13;58.70;101189.75;5031515;28;20415;-63
2022/05/05 08:16:36;;;;;;;9.75;6.97;;;;;;;19.19;58.34;101199.56;5031299;28;20049;-63
2022/05/05 08:19:04;;;;;;;13.38;6.80;;;;;;;19.13;59.14;101189.75;5031314;28;20057;-63
2022/05/05 08:21:32;;;;;;;9.85;6.50;;;;;;;19.19;56.81;101191.25;5031487;28;20049;-63
2022/05/05 08:29:39;;;;;;;9.10;6.00;;;;;;;19.11;56.64;101197.59;5031170;28;20057;-63
2022/05/05 08:32:08;;;;;;;8.13;5.80;;;;;;;18.98;57.70;101200.16;5031223;28;20056;-63
2022/05/05 08:34:37;;;;;;;8.75;5.40;;;;;;;19.12;56.91;101210.31;5040847;28;20522;-63
2022/05/05 08:37:05;;;;;;;5.53;4.57;;;;;;;19.36;55.38;101211.84;5034314;28;20504;-63
2022/05/05 08:39:33;;;;;;;5.78;4.65;;;;;;;19.41;54.78;101208.91;5039680;28;20041;-63
2022/05/05 08:42:04;;;;;;;5.10;4.30;;;;;;;19.27;54.56;101222.91;5036681;28;20060;-63
2022/05/05 08:44:32;;;;;;;4.38;3.97;;;;;;;19.47;53.89;101218.69;5051129;28;20041;-63
2022/05/05 08:47:06;;;;;;;4.95;3.88;;;;;;;19.65;53.29;101215.94;5046792;28;20045;-63
2022/05/05 08:49:36;;;;;;;4.38;3.97;;;;;;;19.55;52.54;101212.31;5033700;28;20499;-63
2022/05/05 08:52:08;;;;;;;6.15;3.70;;;;;;;19.45;52.00;101213.47;5031240;28;20526;-63
2022/05/05 08:54:39;;;;;;;5.38;4.18;;;;;;;19.44;51.87;101220.16;5032857;28;20049;-63
2022/05/05 08:57:07;;;;;;;3.95;3.55;;;;;;;19.38;50.58;101223.41;5041517;28;20052;-63
2022/05/05 08:59:36;;;;;;;3.78;3.30;;;;;;;19.36;51.45;101215.44;5030874;28;20504;-63
2022/05/05 09:02:05;;;;;;;6.25;4.00;;;;;;;19.47;51.63;101218.69;5030893;28;20492;-63
2022/05/05 09:04:36;;;;;;;7.85;3.95;;;;;;;19.33;53.61;101228.00;5030974;28;20507;-63
2022/05/05 09:07:04;;;;;;;8.00;4.20;;;;;;;19.26;53.71;101221.28;5032940;28;20064;-63
2022/05/05 09:09:34;;;;;;;4.75;4.20;;;;;;;19.34;54.44;101221.31;5035201;28;20503;-63
2022/05/05 09:12:19;;;;;;;5.45;4.18;;;;;;;19.29;53.98;101227.00;5034996;28;20045;-63
2022/05/05 09:14:55;;;;;;;5.93;4.85;;;;;;;19.23;55.05;101219.97;5034715;28;20049;-63
2022/05/05 09:17:28;;;;;;;5.07;4.40;;;;;;;19.27;54.68;101212.66;5034808;28;20725;-63
2022/05/05 09:19:57;;;;;;;8.93;4.82;;;;;;;19.23;55.08;101222.75;5034702;28;20504;-63
2022/05/05 09:22:27;;;;;;;6.10;4.88;;;;;;;19.23;54.54;101219.16;5034357;28;20053;-64
2022/05/05 09:24:57;;;;;;;5.95;4.30;;;;;;;19.19;54.48;101221.75;5034643;28;20412;-64
2022/05/05 09:27:34;;;;;;;6.03;4.50;;;;;;;19.10;53.89;101227.28;5034801;28;20392;-63
2022/05/05 09:30:11;;;;;;;4.95;4.25;;;;;;;19.17;54.70;101224.03;5034271;28;20053;-63
2022/05/05 09:32:44;;;;;;;5.43;4.53;;;;;;;19.12;53.73;101215.88;5034692;28;20045;-63
2022/05/05 09:35:15;;;;;;;9.10;4.50;;;;;;;18.85;55.13;101204.69;5034277;28;20045;-63
2022/05/05 09:37:45;;;;;;;6.43;5.65;;;;;;;18.85;54.83;101207.44;5034639;28;20068;-63
2022/05/05 09:40:20;;;;;;;4.85;4.35;;;;;;;18.98;54.30;101202.94;5034011;28;20046;-63
2022/05/05 09:42:50;;;;;;;5.10;4.47;;;;;;;18.98;54.82;101202.94;5034316;28;20053;-63
2022/05/05 09:45:25;;;;;;;6.60;4.63;;;;;;;18.85;54.31;101212.16;5033920;28;20041;-63
2022/05/05 09:47:57;;;;;;;7.75;4.30;;;;;;;18.80;53.72;101204.81;5048036;28;20061;-63
2022/05/05 09:50:27;;;;;;;5.63;4.70;;;;;;;18.61;54.25;101197.56;5034122;28;20049;-63
2022/05/05 09:58:39;;;;;;;4.43;3.63;;;;;;;18.95;54.33;101203.56;5033700;28;20057;-63
2022/05/05 10:01:09;;;;;;;5.75;4.70;;;;;;;19.07;53.11;101192.69;5034110;28;20052;-63
2022/05/05 10:04:00;;;;;;;4.45;3.97;;;;;;;19.06;53.18;101199.38;5033669;28;20048;-64
2022/05/05 10:06:34;;;;;;;8.15;4.40;;;;;;;19.00;52.35;101191.50;5047772;28;20056;-64
2022/05/05 10:09:10;;;;;;;5.00;4.07;;;;;;;18.83;53.71;101189.50;5034558;28;20045;-64
2022/05/05 10:11:39;;;;;;;6.00;4.07;;;;;;;19.07;53.44;101187.13;5016717;28;20397;-64
2022/05/05 10:14:09;;;;;;;4.47;3.70;;;;;;;19.16;53.17;101189.91;5025099;28;20060;-64
2022/05/05 10:16:38;;;;;;;6.05;3.90;;;;;;;19.17;52.17;101187.97;5037347;28;20049;-64
2022/05/05 10:19:07;;;;;;;4.38;3.97;;;;;;;19.17;52.42;101190.75;5042109;28;20129;-64
2022/05/05 10:21:55;;;;;;;5.60;4.35;;;;;;;19.23;51.89;101183.91;5038041;28;20065;-64
2022/05/05 10:24:27;;;;;;;5.90;4.07;;;;;;;19.29;52.48;101190.94;5033069;28;20064;-64
2022/05/05 10:26:57;;;;;;;7.22;4.13;;;;;;;19.33;53.36;101183.59;5036161;28;20049;-64
2022/05/05 10:29:31;;;;;;;7.32;4.50;;;;;;;19.28;51.27;101185.69;5051946;28;20045;-64
2022/05/05 10:32:13;;;;;;;9.48;4.43;;;;;;;19.33;51.25;101178.06;5037632;28;20049;-63
2022/05/05 10:34:45;;;;;;;5.18;4.20;;;;;;;19.29;51.56;101182.59;5033604;28;20049;-64
2022/05/05 10:37:15;;;;;;;5.93;4.43;;;;;;;19.33;51.03;101178.06;5042699;28;20045;-64
2022/05/05 10:40:09;;;;;;;5.13;4.40;;;;;;;19.25;50.07;101176.06;5033235;28;20049;-64
2022/05/05 10:42:45;;;;;;;4.53;3.85;;;;;;;19.42;49.59;101171.69;5044351;28;20060;-64
2022/05/05 10:45:16;;;;;;;3.65;3.35;;;;;;;19.45;48.82;101174.59;5039471;28;20053;-64
2022/05/05 10:47:51;;;;;;;4.82;3.85;;;;;;;19.45;48.98;101174.59;5052625;28;20053;-64
2022/05/05 10:50:32;;;;;;;4.18;3.30;;;;;;;19.55;47.60;101173.47;5043414;28;20064;-64
2022/05/05 10:53:02;;;;;;;5.40;3.47;;;;;;;19.54;47.35;101169.06;5033287;28;20049;-64
2022/05/05 10:55:46;;;;;;;3.88;3.47;;;;;;;19.45;47.79;101174.59;5033354;28;20401;-64
2022/05/05 10:59:04;;;;;;;4.75;3.67;;;;;;;19.61;47.49;101183.25;5033367;28;20048;-64
2022/05/05 11:01:44;;;;;;;5.70;3.33;;;;;;;19.64;47.30;101172.66;5036306;28;20056;-63
2022/05/05 11:04:12;;;;;;;3.95;3.05;;;;;;;19.47;45.09;101168.75;5041098;28;20061;-64
2022/05/05 11:06:45;;;;;;;3.85;3.17;;;;;;;19.40;46.10;101171.19;5032802;28;20052;-64
2022/05/05 11:09:33;;;;;;;5.05;3.20;;;;;;;19.45;45.62;101176.56;5032397;28;20052;-64
2022/05/05 11:12:17;;;;;;;6.70;3.42;;;;;;;19.76;45.52;101180.31;5046640;28;20056;-64
2022/05/05 11:23:46;;;;;;;4.85;2.90;;;;;;;19.64;42.50;101167.09;5032865;28;20037;-64
2022/05/05 11:26:17;;;;;;;4.03;2.72;;;;;;;19.51;42.60;101175.28;5032459;28;20049;-64
2022/05/05 11:28:47;;;;;;;3.53;3.20;;;;;;;19.48;43.92;101187.03;5032584;28;20045;-64
2022/05/05 11:31:33;;;;;;;4.20;2.92;;;;;;;19.50;43.76;101176.41;5032392;28;20050;-64
2022/05/05 11:34:03;;;;;;;3.58;3.05;;;;;;;19.44;44.23;101172.16;5032345;28;20045;-64
2022/05/05 11:36:41;;;;;;;5.15;3.35;;;;;;;19.50;43.42;101165.28;5032410;28;20056;-64
2022/05/05 11:39:10;;;;;;;3.88;2.97;;;;;;;19.53;43.74;101163.81;5033399;28;20056;-64
2022/05/05 11:41:38;;;;;;;4.97;2.97;;;;;;;19.63;44.69;101165.44;5035577;28;20419;-64
2022/05/05 11:44:14;;;;;;;3.85;3.13;;;;;;;19.63;44.67;101159.91;5033496;28;20048;-64
2022/05/05 11:46:44;;;;;;;3.22;2.90;;;;;;;19.72;44.11;101161.56;5038972;28;20049;-64
2022/05/05 11:49:13;;;;;;;4.72;3.10;;;;;;;19.76;44.99;101156.16;5039689;28;20041;-64
2022/05/05 11:51:41;;;;;;;5.53;3.65;;;;;;;19.60;46.05;101153.06;5040746;28;20049;-64
2022/05/05 11:54:14;;;;;;;4.30;3.85;;;;;;;19.76;46.80;101150.59;5031701;28;20053;-64
2022/05/05 11:56:46;;;;;;;5.05;3.85;;;;;;;19.80;46.16;101151.53;5031490;28;20492;-63
2022/05/05 12:02:18;;;;;;;4.60;3.47;;;;;;;19.85;45.99;101151.38;5031452;28;20049;-64
2022/05/05 12:04:52;;;;;;;4.60;4.15;;;;;;;19.76;46.34;101145.03;5039788;28;20049;-64
2022/05/05 12:07:23;;;;;;;4.30;3.90;;;;;;;19.82;46.69;101149.28;5031779;28;20507;-63
2022/05/05 12:09:54;;;;;;;5.13;3.83;;;;;;;19.94;46.37;101142.22;5031711;28;20057;-63
2022/05/05 12:12:29;;;;;;;4.80;4.00;;;;;;;20.00;44.63;101146.50;5031619;28;20403;-64
2022/05/05 12:14:59;;;;;;;3.97;3.30;;;;;;;20.06;44.81;101144.34;5040850;28;20068;-63
2022/05/05 12:17:49;;;;;;;6.63;4.10;;;;;;;20.16;46.24;101141.22;5040330;28;20068;-64
2022/05/05 12:20:20;;;;;;;7.00;4.00;;;;;;;20.02;46.29;101138.63;5031916;28;20049;-64
2022/05/05 12:22:58;;;;;;;3.80;3.50;;;;;;;20.01;46.83;101145.34;5030975;28;20045;-64